Time;durP1;ratioP1;P1;durP2;ratioP2;P2;SDS_P1;SDS_P2;PMS_P1;PMS_P2;Temp;Humidity;BMP_temperature;BMP_pressure;BME280_temperature;BME280_humidity;BME280_pressure;Samples;Min_cycle;Max_cycle;Signal;HPM_P1;HPM_P2
2022/09/19 00:01:35;;;;;;;4.05;2.30;;;12.10;82.10;;;;;;5092120;28;20404;-51
2022/09/19 00:04:06;;;;;;;4.78;1.80;;;12.10;82.10;;;;;;5094061;28;20044;-48
2022/09/19 00:06:36;;;;;;;5.90;2.00;;;12.10;82.00;;;;;;5086501;28;20097;-47
2022/09/19 00:09:05;;;;;;;3.30;2.13;;;12.10;82.00;;;;;;5090212;28;20154;-48
2022/09/19 00:11:33;;;;;;;6.63;2.45;;;12.10;81.90;;;;;;5092374;28;20044;-52
2022/09/19 00:14:00;;;;;;;4.85;2.13;;;12.10;82.00;;;;;;5101263;28;20040;-47
2022/09/19 00:16:35;;;;;;;9.30;2.17;;;12.10;82.00;;;;;;5086492;28;20049;-48
2022/09/19 00:19:04;;;;;;;9.25;2.60;;;12.10;82.00;;;;;;5071787;28;20078;-50
2022/09/19 00:21:39;;;;;;;10.15;2.58;;;12.10;82.00;;;;;;5073399;28;20127;-52
2022/09/19 00:26:57;;;;;;;7.65;2.40;;;12.10;81.90;;;;;;5082823;28;20052;-48
2022/09/19 00:29:25;;;;;;;7.78;2.72;;;12.10;81.70;;;;;;5075394;28;20043;-49
2022/09/19 00:31:56;;;;;;;9.93;2.70;;;12.10;81.70;;;;;;5086546;28;20054;-48
2022/09/19 00:34:23;;;;;;;5.85;2.00;;;12.10;81.60;;;;;;5086090;28;20044;-48
2022/09/19 00:36:52;;;;;;;6.97;2.10;;;12.10;81.60;;;;;;5083003;28;20038;-47
2022/09/19 00:39:19;;;;;;;9.30;2.67;;;12.10;81.60;;;;;;5086951;28;20062;-47
2022/09/19 00:41:47;;;;;;;8.52;2.30;;;12.10;81.60;;;;;;5088655;28;20488;-48
2022/09/19 00:44:23;;;;;;;5.30;1.85;;;12.10;81.60;;;;;;5088581;28;20060;-47
2022/09/19 00:47:00;;;;;;;6.18;2.40;;;12.10;81.60;;;;;;5086213;28;20530;-48
2022/09/19 00:49:30;;;;;;;3.20;1.90;;;12.00;81.50;;;;;;5091652;28;20040;-48
2022/09/19 00:52:02;;;;;;;6.45;2.17;;;12.00;81.40;;;;;;5094509;28;20064;-47
2022/09/19 00:54:32;;;;;;;5.28;1.92;;;12.00;81.40;;;;;;5095920;28;20569;-49
2022/09/19 00:57:01;;;;;;;7.07;2.30;;;12.00;81.40;;;;;;5088747;28;20070;-48
2022/09/19 00:59:33;;;;;;;7.28;1.98;;;12.00;81.40;;;;;;5084016;28;20048;-49
2022/09/19 01:02:04;;;;;;;8.48;2.13;;;12.00;81.40;;;;;;5089673;28;20044;-47
2022/09/19 01:04:35;;;;;;;5.30;2.30;;;12.00;81.40;;;;;;5090856;28;20122;-47
2022/09/19 01:07:21;;;;;;;10.05;2.00;;;11.90;81.30;;;;;;5082656;28;20046;-47
2022/09/19 01:09:52;;;;;;;7.60;1.60;;;12.00;82.00;;;;;;5095607;28;20040;-51
2022/09/19 01:12:37;;;;;;;6.57;2.30;;;11.90;81.30;;;;;;5090699;28;20044;-47
2022/09/19 01:15:28;;;;;;;9.55;2.10;;;11.90;81.30;;;;;;5082163;28;20297;-50
2022/09/19 01:17:59;;;;;;;5.13;2.05;;;11.90;81.40;;;;;;5089250;28;20036;-52
2022/09/19 01:20:36;;;;;;;6.93;2.38;;;11.90;81.20;;;;;;5077872;28;20044;-51
2022/09/19 01:23:32;;;;;;;7.55;2.65;;;11.80;81.20;;;;;;5073382;28;20047;-47
2022/09/19 01:26:18;;;;;;;8.60;1.85;;;11.80;81.40;;;;;;5083516;28;20040;-49
2022/09/19 01:29:08;;;;;;;6.43;1.83;;;11.80;81.40;;;;;;5092087;28;20039;-50
2022/09/19 01:31:40;;;;;;;4.45;2.17;;;11.80;81.30;;;;;;5078891;28;20136;-46
2022/09/19 01:34:21;;;;;;;7.63;2.40;;;11.80;81.20;;;;;;5089089;28;20420;-47
2022/09/19 01:36:58;;;;;;;8.43;2.30;;;11.80;81.30;;;;;;5088856;28;20047;-49
2022/09/19 01:39:28;;;;;;;4.88;1.63;;;11.80;81.30;;;;;;5078047;28;20036;-49
2022/09/19 01:42:01;;;;;;;4.95;1.58;;;11.70;81.30;;;;;;5078119;28;20036;-48
2022/09/19 01:44:29;;;;;;;4.60;1.55;;;11.70;81.50;;;;;;5089319;28;20044;-49
2022/09/19 01:47:21;;;;;;;7.97;2.10;;;11.70;81.70;;;;;;5096031;28;20055;-50
2022/09/19 01:50:06;;;;;;;13.23;2.40;;;11.80;82.00;;;;;;5091148;28;20653;-50
2022/09/19 01:53:01;;;;;;;4.80;1.98;;;11.80;81.90;;;;;;5100219;28;20127;-47
2022/09/19 01:56:09;;;;;;;4.03;1.65;;;11.80;81.90;;;;;;5091875;28;20513;-46
2022/09/19 01:58:51;;;;;;;6.43;2.05;;;11.80;81.60;;;;;;5083047;28;20040;-51
2022/09/19 02:01:22;;;;;;;8.30;2.45;;;11.80;81.50;;;;;;5088864;28;20124;-48
2022/09/19 02:04:00;;;;;;;4.78;1.63;;;11.80;81.50;;;;;;5089425;28;20436;-49
2022/09/19 02:06:48;;;;;;;3.80;1.52;;;11.80;81.50;;;;;;5094374;28;20044;-49
2022/09/19 02:09:30;;;;;;;8.10;1.70;;;11.70;81.50;;;;;;5087314;28;20554;-52
2022/09/19 02:12:01;;;;;;;5.70;1.90;;;11.70;81.30;;;;;;5086295;28;20063;-52
2022/09/19 02:14:35;;;;;;;6.03;1.85;;;11.70;81.20;;;;;;5091435;28;20516;-48
2022/09/19 02:17:06;;;;;;;6.35;1.65;;;11.70;81.20;;;;;;5082550;28;20040;-47
2022/09/19 02:19:53;;;;;;;6.80;1.83;;;11.70;81.20;;;;;;5087000;28;20044;-47
2022/09/19 02:22:30;;;;;;;6.85;2.15;;;11.70;81.30;;;;;;5093502;28;20090;-52
2022/09/19 02:25:02;;;;;;;5.78;1.58;;;11.70;81.50;;;;;;5088803;28;20468;-48
2022/09/19 02:27:38;;;;;;;6.60;2.13;;;11.60;81.40;;;;;;5085245;28;20071;-46
2022/09/19 02:30:09;;;;;;;6.88;2.00;;;11.60;81.50;;;;;;5080885;28;20068;-46
2022/09/19 02:32:47;;;;;;;10.18;2.25;;;11.60;81.40;;;;;;5073195;28;20459;-47
2022/09/19 02:35:34;;;;;;;7.07;2.17;;;11.60;81.30;;;;;;5087701;28;20051;-50
2022/09/19 02:38:25;;;;;;;4.30;1.80;;;11.60;81.30;;;;;;5091624;28;20516;-48
2022/09/19 02:41:09;;;;;;;4.10;1.67;;;11.60;81.30;;;;;;5081806;28;20048;-49
2022/09/19 02:43:50;;;;;;;4.32;1.88;;;11.60;81.20;;;;;;5082918;28;20425;-49
2022/09/19 02:46:28;;;;;;;4.10;1.55;;;11.60;81.20;;;;;;5092051;28;20040;-48
2022/09/19 02:49:12;;;;;;;5.18;2.08;;;11.50;81.20;;;;;;5074716;28;20139;-47
2022/09/19 02:51:48;;;;;;;7.07;1.98;;;11.50;81.20;;;;;;5088688;28;20408;-49
2022/09/19 02:54:21;;;;;;;6.90;1.90;;;11.50;81.20;;;;;;5091507;28;20044;-52
2022/09/19 02:56:49;;;;;;;;;;;11.50;81.20;;;;;;5092512;28;20041;-45
2022/09/19 02:59:23;;;;;;;8.05;2.38;;;11.50;81.60;;;;;;5092193;28;20014;-47
2022/09/19 03:02:03;;;;;;;3.35;1.90;;;11.50;80.90;;;;;;5094514;28;20127;-48
2022/09/19 03:04:39;;;;;;;7.45;1.67;;;11.40;80.90;;;;;;5095093;28;20408;-49
2022/09/19 03:07:27;;;;;;;8.02;1.98;;;11.40;81.00;;;;;;5092072;28;20399;-48
2022/09/19 03:10:15;;;;;;;6.45;1.85;;;11.40;81.20;;;;;;5096996;28;20043;-48
2022/09/19 03:13:01;;;;;;;5.80;2.60;;;11.40;81.30;;;;;;5091902;28;20048;-47
2022/09/19 03:15:35;;;;;;;4.47;1.90;;;11.40;81.30;;;;;;5080793;28;20068;-47
2022/09/19 03:18:10;;;;;;;8.18;1.70;;;11.30;81.40;;;;;;5095442;28;20044;-51
2022/09/19 03:20:45;;;;;;;4.15;1.92;;;11.30;81.50;;;;;;5081710;28;20123;-46
2022/09/19 03:23:15;;;;;;;5.13;2.50;;;11.30;81.60;;;;;;5087743;28;20072;-47
2022/09/19 03:25:42;;;;;;;6.85;2.08;;;11.30;81.60;;;;;;5084195;28;20399;-50
2022/09/19 03:28:09;;;;;;;4.13;2.00;;;11.30;81.80;;;;;;5085618;28;20057;-50
2022/09/19 03:30:36;;;;;;;6.47;2.28;;;11.30;82.10;;;;;;5089683;28;20067;-48
2022/09/19 03:33:04;;;;;;;9.55;2.35;;;11.30;82.30;;;;;;5090434;28;20036;-51
2022/09/19 03:35:31;;;;;;;7.50;2.13;;;11.30;82.50;;;;;;5084598;28;20135;-48
2022/09/19 03:37:57;;;;;;;6.82;2.40;;;11.30;82.50;;;;;;5092870;28;20496;-50
2022/09/19 03:40:25;;;;;;;5.95;2.53;;;11.40;82.50;;;;;;5095662;28;20047;-49
2022/09/19 03:42:53;;;;;;;5.63;2.70;;;11.40;82.40;;;;;;5089830;28;20409;-48
2022/09/19 03:45:22;;;;;;;5.93;2.63;;;11.40;82.10;;;;;;5083462;28;20127;-50
2022/09/19 03:47:52;;;;;;;4.13;1.67;;;11.40;82.00;;;;;;5090377;28;20127;-47
2022/09/19 03:50:23;;;;;;;13.18;3.13;;;11.40;81.90;;;;;;5096673;28;20451;-50
2022/09/19 03:53:11;;;;;;;5.72;2.33;;;11.40;81.80;;;;;;5089832;28;20032;-48
2022/09/19 03:55:39;;;;;;;5.40;2.05;;;11.40;81.90;;;;;;5092905;28;20395;-48
2022/09/19 03:58:10;;;;;;;4.25;1.70;;;11.40;82.10;;;;;;5092758;28;20044;-47
2022/09/19 04:00:37;;;;;;;5.80;1.95;;;11.40;82.30;;;;;;5086527;28;20086;-48
2022/09/19 04:03:04;;;;;;;6.93;2.28;;;11.40;83.10;;;;;;5081302;28;20040;-50
2022/09/19 04:05:35;;;;;;;8.02;2.47;;;11.40;82.40;;;;;;5070270;28;20104;-47
2022/09/19 04:08:02;;;;;;;5.10;2.13;;;11.40;82.30;;;;;;5081325;28;20035;-48
2022/09/19 04:10:29;;;;;;;5.15;1.80;;;11.40;82.30;;;;;;5090857;28;20047;-48
2022/09/19 04:12:56;;;;;;;5.68;1.90;;;11.50;82.30;;;;;;5083429;28;20112;-48
2022/09/19 04:15:22;;;;;;;6.93;2.65;;;11.50;82.10;;;;;;5070206;28;20041;-47
2022/09/19 04:17:50;;;;;;;5.97;2.58;;;11.40;82.00;;;;;;5092760;28;20492;-49
2022/09/19 04:20:18;;;;;;;8.45;1.75;;;11.50;82.10;;;;;;5085993;28;20036;-47
2022/09/19 04:23:05;;;;;;;5.82;2.42;;;11.50;82.80;;;;;;5081297;28;20095;-47
2022/09/19 04:25:47;;;;;;;6.13;2.05;;;11.50;83.00;;;;;;5088614;28;20036;-48
2022/09/19 04:28:34;;;;;;;4.90;2.17;;;11.50;82.60;;;;;;5084004;28;20053;-48
2022/09/19 04:31:01;;;;;;;7.18;2.05;;;11.50;82.80;;;;;;5077595;28;20052;-49
2022/09/19 04:33:31;;;;;;;8.63;2.05;;;11.50;83.00;;;;;;5079118;28;20037;-47
2022/09/19 04:36:00;;;;;;;8.40;2.15;;;11.50;83.00;;;;;;5092489;28;20469;-49
2022/09/19 04:38:32;;;;;;;6.18;1.75;;;11.60;83.00;;;;;;5086726;28;20032;-48
2022/09/19 04:41:00;;;;;;;6.30;2.20;;;11.60;83.00;;;;;;5074665;28;20120;-48
2022/09/19 04:43:31;;;;;;;5.38;1.70;;;11.70;83.00;;;;;;5079461;28;20039;-48
2022/09/19 04:46:20;;;;;;;6.63;1.80;;;11.70;83.10;;;;;;5084994;28;20402;-48
2022/09/19 04:48:49;;;;;;;6.13;1.90;;;11.70;83.10;;;;;;5081105;28;20037;-49
2022/09/19 04:51:20;;;;;;;7.15;2.00;;;11.70;83.10;;;;;;5090335;28;20039;-49
2022/09/19 04:53:51;;;;;;;6.80;2.38;;;11.70;83.20;;;;;;5091691;28;20040;-48
2022/09/19 04:56:18;;;;;;;4.30;1.95;;;11.80;83.30;;;;;;5103315;28;20036;-48
2022/09/19 04:58:45;;;;;;;6.60;2.28;;;11.80;83.30;;;;;;5083153;28;20036;-48
2022/09/19 05:01:14;;;;;;;7.70;2.45;;;11.80;83.30;;;;;;5090190;28;20123;-48
2022/09/19 05:03:44;;;;;;;4.75;1.70;;;11.90;83.30;;;;;;5093373;28;20411;-50
2022/09/19 05:06:12;;;;;;;11.77;2.63;;;11.90;83.30;;;;;;5088524;28;20048;-48
2022/09/19 05:08:40;;;;;;;4.38;2.00;;;11.90;83.20;;;;;;5090638;28;20048;-48
2022/09/19 05:11:13;;;;;;;6.10;1.90;;;11.90;83.20;;;;;;5092692;28;20460;-50
2022/09/19 05:13:40;;;;;;;8.88;2.10;;;12.00;83.10;;;;;;5089821;28;20098;-47
2022/09/19 05:16:13;;;;;;;9.43;2.17;;;12.00;83.20;;;;;;5087025;28;20527;-47
2022/09/19 05:18:49;;;;;;;8.18;1.88;;;12.00;83.00;;;;;;5070081;28;20127;-46
2022/09/19 05:21:22;;;;;;;7.03;2.30;;;12.10;83.10;;;;;;5070471;28;20043;-47
2022/09/19 05:23:54;;;;;;;6.82;1.90;;;12.10;83.10;;;;;;5077444;28;20033;-53
2022/09/19 05:26:21;;;;;;;5.43;1.67;;;12.10;83.20;;;;;;5081803;28;20056;-53
2022/09/19 05:28:50;;;;;;;8.40;2.53;;;12.10;82.90;;;;;;5072838;28;20041;-49
2022/09/19 05:31:20;;;;;;;5.78;2.13;;;12.10;82.60;;;;;;5070806;28;20178;-50
2022/09/19 05:34:00;;;;;;;3.90;1.85;;;12.10;82.40;;;;;;5093689;28;20393;-52
2022/09/19 05:36:27;;;;;;;4.72;1.83;;;12.10;82.20;;;;;;5085971;28;20048;-53
2022/09/19 05:39:25;;;;;;;6.43;1.80;;;12.10;82.10;;;;;;5082868;28;20491;-50
2022/09/19 05:41:58;;;;;;;6.88;2.90;;;12.10;81.90;;;;;;5088679;28;20040;-51
2022/09/19 05:44:26;;;;;;;5.15;1.30;;;12.10;82.60;;;;;;5088278;28;20684;-50
2022/09/19 05:46:57;;;;;;;7.70;2.22;;;12.00;81.80;;;;;;5070364;28;20140;-52
2022/09/19 05:49:26;;;;;;;7.05;1.80;;;12.00;81.80;;;;;;5067895;28;20054;-50
2022/09/19 05:51:56;;;;;;;3.83;1.90;;;12.00;81.80;;;;;;5084773;28;20101;-51
2022/09/19 05:54:25;;;;;;;4.00;1.70;;;11.90;81.90;;;;;;5080813;28;20105;-52
2022/09/19 05:57:10;;;;;;;4.03;1.73;;;11.90;82.10;;;;;;5086550;28;20301;-53
2022/09/19 05:59:39;;;;;;;8.32;2.08;;;12.00;82.30;;;;;;5083397;28;20040;-51
2022/09/19 06:02:10;;;;;;;6.35;2.00;;;12.00;82.40;;;;;;5087986;28;20540;-50
2022/09/19 06:04:46;;;;;;;8.18;2.47;;;12.00;82.60;;;;;;5092923;28;20052;-49
2022/09/19 06:07:14;;;;;;;11.93;2.38;;;12.00;82.90;;;;;;5077341;28;20067;-50
2022/09/19 06:09:43;;;;;;;5.78;1.70;;;12.00;83.10;;;;;;5077699;28;20504;-51
2022/09/19 06:12:12;;;;;;;5.38;2.20;;;12.00;83.40;;;;;;5084254;28;20052;-50
2022/09/19 06:14:38;;;;;;;6.97;2.08;;;12.00;83.50;;;;;;5067363;28;20079;-51
2022/09/19 06:17:08;;;;;;;8.68;2.08;;;12.10;83.70;;;;;;5083877;28;20051;-50
2022/09/19 06:19:53;;;;;;;4.18;2.10;;;12.10;83.80;;;;;;5089302;28;20547;-51
2022/09/19 06:22:25;;;;;;;6.40;2.13;;;12.20;83.90;;;;;;5073568;28;20032;-54
2022/09/19 06:24:54;;;;;;;4.55;1.90;;;12.20;83.90;;;;;;5073284;28;20061;-52
2022/09/19 06:27:22;;;;;;;6.93;2.28;;;12.30;83.90;;;;;;5079995;28;20323;-51
2022/09/19 06:29:50;;;;;;;6.75;1.85;;;12.30;83.70;;;;;;5083806;28;20048;-50
2022/09/19 06:32:20;;;;;;;4.75;2.13;;;12.30;83.60;;;;;;5079524;28;20052;-49
2022/09/19 06:34:54;;;;;;;7.53;2.40;;;12.30;83.50;;;;;;5078260;28;20033;-50
2022/09/19 06:37:28;;;;;;;10.20;2.15;;;12.40;83.60;;;;;;5078391;28;20059;-49
2022/09/19 06:39:55;;;;;;;8.05;2.10;;;12.40;83.80;;;;;;5080706;28;20162;-51
2022/09/19 06:42:46;;;;;;;7.60;2.30;;;12.40;84.10;;;;;;5071836;28;20094;-53
2022/09/19 06:45:38;;;;;;;5.88;1.75;;;12.50;84.30;;;;;;5081484;28;20048;-53
2022/09/19 06:48:13;;;;;;;6.15;2.15;;;12.50;84.50;;;;;;5095658;28;20071;-49
2022/09/19 06:51:09;;;;;;;8.40;2.17;;;12.60;84.70;;;;;;5046884;28;20587;-52
2022/09/19 06:53:37;;;;;;;7.95;2.25;;;12.70;84.80;;;;;;5081252;28;20044;-52
2022/09/19 06:56:07;;;;;;;7.10;2.40;;;12.80;84.80;;;;;;5089391;28;20040;-53
2022/09/19 06:58:34;;;;;;;6.55;2.03;;;12.80;84.80;;;;;;5072909;28;20045;-50
2022/09/19 07:01:01;;;;;;;7.53;2.20;;;12.90;84.70;;;;;;5067615;28;20044;-50
2022/09/19 07:03:28;;;;;;;6.65;2.13;;;12.90;84.80;;;;;;5110839;27;20500;-49
2022/09/19 07:06:00;;;;;;;9.38;2.55;;;13.00;84.50;;;;;;5091000;28;20041;-50
2022/09/19 07:08:38;;;;;;;5.10;2.13;;;13.00;84.20;;;;;;5085834;28;20063;-52
2022/09/19 07:11:07;;;;;;;9.18;2.15;;;13.10;83.90;;;;;;5091559;28;20071;-52
2022/09/19 07:13:38;;;;;;;6.60;2.42;;;13.20;83.90;;;;;;5091694;28;20044;-52
2022/09/19 07:16:08;;;;;;;5.18;2.88;;;13.20;83.90;;;;;;5096173;28;20063;-51
2022/09/19 07:18:36;;;;;;;4.25;1.85;;;13.20;84.00;;;;;;5083188;28;20044;-52
2022/09/19 07:21:23;;;;;;;9.27;2.53;;;13.30;84.10;;;;;;5084776;28;20052;-52
2022/09/19 07:23:54;;;;;;;7.35;2.20;;;13.30;84.00;;;;;;5104218;28;20035;-51
2022/09/19 07:26:31;;;;;;;7.15;2.35;;;13.30;84.00;;;;;;5084322;28;20155;-48
2022/09/19 07:28:59;;;;;;;8.10;2.50;;;13.40;84.10;;;;;;5083076;28;20047;-50
2022/09/19 07:31:27;;;;;;;6.05;2.30;;;13.40;84.20;;;;;;5091130;28;20036;-53
2022/09/19 07:33:54;;;;;;;4.43;1.88;;;13.40;84.40;;;;;;5096760;28;20526;-50
2022/09/19 07:36:26;;;;;;;5.07;2.13;;;13.50;84.50;;;;;;5090015;28;20028;-48
2022/09/19 07:38:57;;;;;;;7.10;2.45;;;13.60;84.40;;;;;;5090932;28;20044;-49
2022/09/19 07:41:51;;;;;;;7.93;2.35;;;13.70;84.40;;;;;;5100507;27;20033;-50
2022/09/19 07:44:43;;;;;;;5.38;2.08;;;13.70;84.30;;;;;;5091795;28;20051;-54
2022/09/19 07:47:29;;;;;;;7.55;2.83;;;13.80;84.00;;;;;;5085464;28;20462;-52
2022/09/19 07:50:09;;;;;;;6.88;2.20;;;13.90;83.60;;;;;;5078137;28;20048;-54
2022/09/19 07:52:40;;;;;;;8.88;2.30;;;13.90;83.30;;;;;;5110346;27;20101;-50
2022/09/19 07:55:11;;;;;;;7.22;2.08;;;14.00;83.20;;;;;;5093124;28;20048;-50
2022/09/19 07:57:38;;;;;;;7.32;2.38;;;14.00;82.70;;;;;;5083036;28;20044;-51
2022/09/19 08:00:06;;;;;;;6.45;1.63;;;14.00;82.40;;;;;;5086786;28;20177;-54
2022/09/19 08:03:01;;;;;;;5.15;2.80;;;14.00;82.20;;;;;;5093213;28;20135;-54
2022/09/19 08:05:37;;;;;;;5.05;2.65;;;14.00;82.30;;;;;;5083685;28;20044;-52
2022/09/19 08:08:07;;;;;;;7.25;2.70;;;13.90;82.30;;;;;;5088633;28;20086;-50
2022/09/19 08:10:34;;;;;;;5.35;2.40;;;14.00;82.50;;;;;;5093661;28;20101;-49
2022/09/19 08:13:05;;;;;;;7.45;2.40;;;14.00;82.70;;;;;;5087415;28;20093;-54
2022/09/19 08:15:35;;;;;;;8.05;2.65;;;14.00;83.20;;;;;;5084007;28;20349;-51
2022/09/19 08:18:04;;;;;;;7.28;2.25;;;14.00;83.60;;;;;;5089772;28;20114;-52
2022/09/19 08:20:36;;;;;;;8.98;2.42;;;14.10;84.20;;;;;;5111416;27;20047;-50
2022/09/19 08:23:06;;;;;;;9.00;2.60;;;14.10;84.70;;;;;;5091540;28;20081;-53
2022/09/19 08:25:38;;;;;;;10.10;2.65;;;14.20;85.10;;;;;;5082169;28;20043;-51
2022/09/19 08:28:05;;;;;;;11.73;2.95;;;14.30;85.20;;;;;;5090086;28;20512;-54
2022/09/19 08:30:34;;;;;;;10.75;2.30;;;14.40;84.80;;;;;;5091655;28;20058;-52
2022/09/19 08:33:07;;;;;;;15.98;2.55;;;14.50;84.50;;;;;;5081512;28;20459;-54
2022/09/19 08:35:39;;;;;;;5.22;2.38;;;14.60;84.30;;;;;;5090532;28;20052;-53
2022/09/19 08:38:12;;;;;;;5.57;2.25;;;14.70;83.60;;;;;;5092620;28;20499;-53
2022/09/19 08:40:51;;;;;;;10.65;2.50;;;14.80;83.20;;;;;;5092320;28;20489;-50
2022/09/19 08:43:40;;;;;;;8.50;2.45;;;14.80;82.70;;;;;;5085109;28;20037;-54
2022/09/19 08:46:22;;;;;;;7.35;2.63;;;14.90;82.50;;;;;;5088824;28;20119;-50
2022/09/19 08:49:01;;;;;;;10.15;2.55;;;15.00;82.50;;;;;;5081864;28;20036;-51
2022/09/19 08:51:34;;;;;;;10.27;1.88;;;15.10;82.40;;;;;;5087362;28;20036;-54
2022/09/19 08:54:40;;;;;;;7.45;2.50;;;15.10;82.60;;;;;;5091552;28;20516;-53
2022/09/19 08:57:25;;;;;;;8.02;1.80;;;15.20;82.90;;;;;;5086191;28;20044;-53
2022/09/19 09:00:02;;;;;;;7.07;1.95;;;15.40;82.20;;;;;;5092652;28;20077;-54
2022/09/19 09:02:40;;;;;;;;;;;15.50;82.50;;;;;;5090017;28;20040;-50
2022/09/19 09:05:36;;;;;;;5.80;1.55;;;15.60;82.40;;;;;;5090114;28;19998;-53
2022/09/19 09:08:34;;;;;;;6.03;1.35;;;15.70;80.70;;;;;;5089324;28;20056;-54
2022/09/19 09:11:27;;;;;;;7.82;1.67;;;15.80;80.50;;;;;;5082956;28;20456;-51
2022/09/19 09:14:12;;;;;;;6.18;1.50;;;15.80;80.30;;;;;;5094145;28;20067;-51
2022/09/19 09:17:01;;;;;;;5.97;1.38;;;15.90;79.70;;;;;;5090148;28;20051;-50
2022/09/19 09:19:49;;;;;;;3.10;1.55;;;16.00;79.90;;;;;;5077633;28;20104;-52
2022/09/19 09:22:28;;;;;;;5.63;1.73;;;16.10;78.80;;;;;;5074389;28;20060;-50
2022/09/19 09:25:30;;;;;;;4.22;1.52;;;16.20;78.70;;;;;;5072910;28;20059;-54
2022/09/19 09:28:09;;;;;;;4.10;1.05;;;16.30;78.40;;;;;;5102697;28;20105;-51
2022/09/19 09:31:07;;;;;;;3.20;1.00;;;16.30;78.70;;;;;;5085673;28;20086;-54
2022/09/19 09:33:48;;;;;;;7.35;1.42;;;16.40;78.50;;;;;;5091118;28;20438;-53
2022/09/19 09:36:22;;;;;;;3.00;1.25;;;16.50;77.50;;;;;;5091182;28;20044;-51
2022/09/19 09:38:59;;;;;;;3.17;1.10;;;16.50;77.10;;;;;;5089172;28;20056;-53
2022/09/19 09:41:47;;;;;;;5.35;1.23;;;16.60;77.10;;;;;;5074550;28;20043;-49
2022/09/19 09:44:26;;;;;;;5.40;1.50;;;16.60;76.40;;;;;;5089381;28;20504;-50
2022/09/19 09:47:20;;;;;;;2.78;0.75;;;16.70;76.80;;;;;;5087614;28;20032;-54
2022/09/19 09:49:47;;;;;;;3.80;1.17;;;16.80;75.80;;;;;;5085221;28;20553;-54
2022/09/19 09:52:41;;;;;;;3.20;1.17;;;16.80;76.00;;;;;;5088519;28;20068;-52
2022/09/19 09:59:04;;;;;;;4.20;1.00;;;16.90;74.30;;;;;;5084880;28;20056;-51
2022/09/19 10:04:46;;;;;;;3.20;0.70;;;17.00;73.60;;;;;;5082665;28;20051;-51
2022/09/19 10:07:58;;;;;;;1.25;0.70;;;17.00;74.00;;;;;;5079566;28;20070;-53
2022/09/19 10:10:27;;;;;;;2.63;0.90;;;17.00;73.40;;;;;;5089499;28;20478;-51
2022/09/19 10:13:14;;;;;;;2.55;0.95;;;17.10;74.30;;;;;;5094256;28;20067;-52
2022/09/19 10:15:48;;;;;;;4.80;1.08;;;17.10;72.60;;;;;;5085631;28;20040;-52
2022/09/19 10:18:21;;;;;;;4.18;1.00;;;17.20;73.80;;;;;;5076351;28;20511;-51
2022/09/19 10:20:59;;;;;;;2.20;0.90;;;17.30;74.40;;;;;;5073494;28;20415;-52
2022/09/19 10:23:32;;;;;;;5.30;1.30;;;17.40;74.40;;;;;;5086505;28;20432;-55
2022/09/19 10:26:15;;;;;;;5.03;1.35;;;17.50;73.70;;;;;;5088143;28;20040;-50
2022/09/19 10:28:59;;;;;;;4.55;1.48;;;17.60;73.30;;;;;;5089153;28;20101;-53
2022/09/19 10:31:38;;;;;;;5.43;1.30;;;17.70;72.50;;;;;;5076549;28;20501;-51
2022/09/19 10:34:32;;;;;;;4.00;1.02;;;17.70;72.10;;;;;;5076491;28;20055;-55
2022/09/19 10:37:12;;;;;;;;;;;17.80;71.70;;;;;;5090304;28;20048;-54
2022/09/19 10:39:46;;;;;;;4.80;1.10;;;17.90;72.00;;;;;;5106768;28;20015;-54
2022/09/19 10:42:32;;;;;;;5.00;1.00;;;17.80;70.90;;;;;;5086147;28;20063;-51
2022/09/19 10:45:00;;;;;;;4.22;1.50;;;17.70;70.00;;;;;;5081451;28;20040;-51
2022/09/19 10:47:28;;;;;;;4.15;1.30;;;17.70;70.80;;;;;;5071259;28;20068;-50
2022/09/19 10:50:05;;;;;;;4.97;1.48;;;17.60;70.80;;;;;;5116134;27;20098;-50
2022/09/19 10:52:50;;;;;;;6.50;1.55;;;17.60;70.70;;;;;;5094127;28;20068;-52
2022/09/19 10:55:22;;;;;;;4.10;1.40;;;17.50;70.90;;;;;;5080972;28;20094;-54
2022/09/19 10:57:57;;;;;;;5.53;1.83;;;17.70;71.00;;;;;;5071827;28;20041;-52
2022/09/19 11:00:31;;;;;;;5.15;1.75;;;17.40;70.70;;;;;;5084310;28;20040;-50
2022/09/19 11:03:23;;;;;;;3.13;1.60;;;17.50;71.00;;;;;;5089386;28;20078;-51
2022/09/19 11:06:05;;;;;;;5.53;1.85;;;17.50;70.70;;;;;;5088840;28;20044;-51
2022/09/19 11:08:48;;;;;;;10.80;1.75;;;17.50;71.20;;;;;;5091600;28;20425;-55
2022/09/19 11:11:48;;;;;;;6.88;1.73;;;17.60;70.40;;;;;;5093375;28;20062;-55
2022/09/19 11:14:35;;;;;;;2.15;1.40;;;17.70;71.00;;;;;;5078831;28;20075;-51
2022/09/19 11:17:19;;;;;;;3.15;1.50;;;17.70;71.30;;;;;;5087182;28;20439;-50
2022/09/19 11:20:08;;;;;;;5.63;1.40;;;17.80;70.30;;;;;;5085506;28;20040;-53
2022/09/19 11:22:40;;;;;;;4.15;1.52;;;17.80;70.50;;;;;;5079509;28;20112;-51
2022/09/19 11:25:40;;;;;;;5.28;1.42;;;17.90;70.00;;;;;;5090076;28;20052;-53
2022/09/19 11:28:35;;;;;;;3.45;0.98;;;17.90;68.00;;;;;;5090026;28;20130;-52
2022/09/19 11:31:07;;;;;;;6.18;1.65;;;18.00;68.80;;;;;;5088550;28;20093;-54
2022/09/19 11:33:53;;;;;;;3.05;1.52;;;18.00;69.60;;;;;;5090054;28;20083;-53
2022/09/19 11:37:00;;;;;;;5.85;1.40;;;18.10;68.30;;;;;;5086640;28;20404;-53
2022/09/19 11:40:03;;;;;;;2.90;0.90;;;18.20;68.50;;;;;;5086233;28;20036;-54
2022/09/19 11:42:44;;;;;;;5.90;1.25;;;18.30;67.80;;;;;;5085150;28;20127;-55
2022/09/19 11:45:17;;;;;;;4.13;1.40;;;18.40;66.60;;;;;;5079270;28;20044;-55
2022/09/19 11:48:18;;;;;;;2.75;0.80;;;18.60;68.40;;;;;;5094924;28;20044;-53
2022/09/19 11:51:13;;;;;;;3.22;0.50;;;18.60;65.80;;;;;;5081229;28;20143;-52
2022/09/19 11:53:57;;;;;;;2.45;0.40;;;18.60;64.90;;;;;;5082791;28;20125;-55
2022/09/19 11:56:56;;;;;;;3.65;0.60;;;18.40;65.90;;;;;;5091715;28;20044;-54
2022/09/19 12:00:04;;;;;;;16.35;1.05;;;18.20;66.50;;;;;;5095448;28;20408;-54
2022/09/19 12:02:58;;;;;;;2.30;1.15;;;17.80;66.60;;;;;;5065392;28;20056;-54
2022/09/19 12:05:49;;;;;;;8.20;0.93;;;17.40;67.40;;;;;;5095803;28;20052;-53
2022/09/19 12:08:46;;;;;;;1.73;0.50;;;17.10;68.90;;;;;;5089387;28;20056;-55
2022/09/19 12:11:32;;;;;;;2.72;0.77;;;16.80;70.00;;;;;;5088170;28;20048;-53
2022/09/19 12:14:02;;;;;;;2.90;0.57;;;16.50;71.30;;;;;;5090970;28;20052;-54
2022/09/19 12:16:46;;;;;;;1.98;0.50;;;16.30;71.80;;;;;;5090675;28;20093;-54
2022/09/19 12:19:24;;;;;;;1.15;0.43;;;16.20;73.40;;;;;;5069568;28;20036;-54
2022/09/19 12:22:00;;;;;;;1.25;0.50;;;16.00;73.60;;;;;;5073444;28;20478;-53
2022/09/19 12:27:27;;;;;;;1.98;0.60;;;16.00;76.00;;;;;;5089529;28;20097;-52
2022/09/19 12:30:05;;;;;;;2.47;0.50;;;16.00;76.70;;;;;;5089176;28;20083;-55
2022/09/19 12:32:57;;;;;;;4.40;0.80;;;16.00;76.20;;;;;;5089257;28;20052;-52
2022/09/19 12:35:53;;;;;;;8.35;1.30;;;16.10;74.80;;;;;;5089232;28;20110;-53
2022/09/19 12:38:36;;;;;;;5.43;0.93;;;16.00;74.50;;;;;;5082181;28;20411;-51
2022/09/19 12:41:40;;;;;;;3.63;1.00;;;16.10;74.80;;;;;;5090122;28;20055;-54
2022/09/19 12:44:51;;;;;;;1.80;0.98;;;16.10;75.60;;;;;;5090392;28;20600;-55
2022/09/19 12:47:31;;;;;;;3.40;1.05;;;16.10;75.70;;;;;;5069858;28;20044;-53
2022/09/19 12:50:30;;;;;;;2.85;1.15;;;16.20;76.30;;;;;;5089351;28;20039;-52
2022/09/19 12:53:22;;;;;;;2.17;0.82;;;16.30;77.10;;;;;;5094017;28;20085;-51
2022/09/19 12:56:16;;;;;;;5.25;1.20;;;16.50;77.20;;;;;;5082498;28;20047;-54
2022/09/19 12:59:18;;;;;;;5.07;1.50;;;16.60;76.70;;;;;;5069111;28;20098;-55
2022/09/19 13:01:56;;;;;;;3.67;1.40;;;16.70;77.70;;;;;;5073536;28;20051;-53
2022/09/19 13:04:57;;;;;;;5.22;1.48;;;16.90;76.70;;;;;;5076444;28;20041;-54
2022/09/19 13:07:34;;;;;;;3.33;1.10;;;17.00;77.30;;;;;;5081744;28;20392;-55
2022/09/19 13:10:13;;;;;;;5.20;0.93;;;17.20;76.70;;;;;;5092857;28;20090;-52
2022/09/19 13:12:50;;;;;;;6.68;1.25;;;17.30;76.70;;;;;;5084158;28;20073;-53
2022/09/19 13:15:28;;;;;;;6.25;1.38;;;17.40;77.30;;;;;;5081030;28;20051;-54
2022/09/19 13:23:35;;;;;;;5.57;0.98;;;18.00;76.10;;;;;;5089434;28;20044;-55
2022/09/19 13:26:16;;;;;;;2.90;0.90;;;18.20;75.90;;;;;;5087487;28;20060;-56
2022/09/19 13:28:57;;;;;;;3.58;1.05;;;18.40;73.40;;;;;;5091715;28;20393;-54
2022/09/19 13:31:35;;;;;;;5.15;0.93;;;18.60;73.90;;;;;;5087914;28;20044;-51
2022/09/19 13:34:33;;;;;;;5.60;1.98;;;18.60;72.30;;;;;;5080947;28;20115;-55
2022/09/19 13:37:04;;;;;;;4.82;1.20;;;18.70;71.50;;;;;;5073114;28;20048;-53
2022/09/19 13:39:53;;;;;;;2.05;0.98;;;18.70;72.20;;;;;;5086768;28;20044;-56
2022/09/19 13:42:40;;;;;;;2.50;1.20;;;18.60;70.90;;;;;;5087290;28;20085;-53
2022/09/19 13:45:27;;;;;;;2.53;0.88;;;18.60;70.70;;;;;;5078992;28;20498;-55
2022/09/19 13:48:01;;;;;;;1.45;0.77;;;18.50;70.40;;;;;;5094757;28;20041;-53
2022/09/19 13:50:39;;;;;;;2.72;0.73;;;18.50;71.90;;;;;;5087876;28;20121;-52
2022/09/19 13:53:12;;;;;;;4.03;0.75;;;18.60;71.90;;;;;;5069331;28;20045;-53
2022/09/19 13:55:41;;;;;;;4.30;0.95;;;18.70;73.20;;;;;;5088698;28;20047;-52
2022/09/19 13:58:34;;;;;;;5.18;1.95;;;19.00;76.90;;;;;;5091416;28;20119;-56
2022/09/19 14:01:13;;;;;;;2.80;0.85;;;19.50;74.50;;;;;;5086513;28;20056;-53